sensor_id;sensor_type;location;lat;lon;timestamp;P1;durP1;ratioP1;P2;durP2;ratioP2
20669;SDS011;10494;50.868;4.180;2022-09-30T00:00:21;14.40;;;10.37;;
20669;SDS011;10494;50.868;4.180;2022-09-30T00:02:47;14.07;;;9.50;;
20669;SDS011;10494;50.868;4.180;2022-09-30T00:05:12;12.67;;;9.33;;
20669;SDS011;10494;50.868;4.180;2022-09-30T00:07:38;12.53;;;8.80;;
20669;SDS011;10494;50.868;4.180;2022-09-30T00:10:04;13.90;;;9.40;;
20669;SDS011;10494;50.868;4.180;2022-09-30T00:12:31;15.00;;;10.40;;
20669;SDS011;10494;50.868;4.180;2022-09-30T00:14:56;14.57;;;8.67;;
20669;SDS011;10494;50.868;4.180;2022-09-30T00:17:22;11.30;;;8.37;;
20669;SDS011;10494;50.868;4.180;2022-09-30T00:19:48;14.83;;;8.80;;
20669;SDS011;10494;50.868;4.180;2022-09-30T00:22:13;11.40;;;8.33;;
20669;SDS011;10494;50.868;4.180;2022-09-30T00:24:39;10.80;;;7.87;;
20669;SDS011;10494;50.868;4.180;2022-09-30T00:27:05;19.40;;;9.37;;
20669;SDS011;10494;50.868;4.180;2022-09-30T00:29:30;18.50;;;10.07;;
20669;SDS011;10494;50.868;4.180;2022-09-30T00:31:56;16.03;;;9.00;;
20669;SDS011;10494;50.868;4.180;2022-09-30T00:34:21;15.23;;;9.20;;
20669;SDS011;10494;50.868;4.180;2022-09-30T00:36:48;15.30;;;9.57;;
20669;SDS011;10494;50.868;4.180;2022-09-30T00:41:52;15.73;;;10.10;;
20669;SDS011;10494;50.868;4.180;2022-09-30T00:47:29;19.83;;;9.80;;
20669;SDS011;10494;50.868;4.180;2022-09-30T00:49:57;16.10;;;9.80;;
20669;SDS011;10494;50.868;4.180;2022-09-30T00:52:26;14.30;;;9.40;;
20669;SDS011;10494;50.868;4.180;2022-09-30T00:54:52;14.57;;;9.43;;
20669;SDS011;10494;50.868;4.180;2022-09-30T00:57:19;15.40;;;8.77;;
20669;SDS011;10494;50.868;4.180;2022-09-30T00:59:46;13.90;;;9.00;;
20669;SDS011;10494;50.868;4.180;2022-09-30T01:02:13;15.47;;;8.67;;
20669;SDS011;10494;50.868;4.180;2022-09-30T01:04:39;14.70;;;9.53;;
20669;SDS011;10494;50.868;4.180;2022-09-30T01:07:07;11.77;;;8.43;;
20669;SDS011;10494;50.868;4.180;2022-09-30T01:09:33;11.27;;;7.60;;
20669;SDS011;10494;50.868;4.180;2022-09-30T01:12:02;13.13;;;8.97;;
20669;SDS011;10494;50.868;4.180;2022-09-30T01:14:32;17.67;;;8.90;;
20669;SDS011;10494;50.868;4.180;2022-09-30T01:17:08;14.50;;;9.63;;
20669;SDS011;10494;50.868;4.180;2022-09-30T01:23:00;49.17;;;12.83;;
20669;SDS011;10494;50.868;4.180;2022-09-30T01:32:39;15.43;;;10.57;;
20669;SDS011;10494;50.868;4.180;2022-09-30T01:35:00;12.23;;;8.60;;
20669;SDS011;10494;50.868;4.180;2022-09-30T01:42:57;14.80;;;9.13;;
20669;SDS011;10494;50.868;4.180;2022-09-30T01:48:18;14.43;;;8.73;;
20669;SDS011;10494;50.868;4.180;2022-09-30T01:50:48;12.17;;;8.43;;
20669;SDS011;10494;50.868;4.180;2022-09-30T01:53:36;13.07;;;8.40;;
20669;SDS011;10494;50.868;4.180;2022-09-30T01:56:25;12.90;;;8.40;;
20669;SDS011;10494;50.868;4.180;2022-09-30T01:59:40;11.83;;;8.90;;
20669;SDS011;10494;50.868;4.180;2022-09-30T02:01:57;15.03;;;9.33;;
20669;SDS011;10494;50.868;4.180;2022-09-30T02:05:16;15.03;;;9.07;;
20669;SDS011;10494;50.868;4.180;2022-09-30T02:07:42;11.37;;;7.83;;
20669;SDS011;10494;50.868;4.180;2022-09-30T02:12:58;10.87;;;7.70;;
20669;SDS011;10494;50.868;4.180;2022-09-30T02:15:31;13.70;;;6.97;;
20669;SDS011;10494;50.868;4.180;2022-09-30T02:18:10;10.17;;;7.10;;
20669;SDS011;10494;50.868;4.180;2022-09-30T02:20:43;9.90;;;6.60;;
20669;SDS011;10494;50.868;4.180;2022-09-30T02:23:13;10.77;;;7.10;;
20669;SDS011;10494;50.868;4.180;2022-09-30T02:25:44;9.73;;;7.67;;
20669;SDS011;10494;50.868;4.180;2022-09-30T02:28:21;11.43;;;7.67;;
20669;SDS011;10494;50.868;4.180;2022-09-30T02:30:51;12.83;;;7.00;;
20669;SDS011;10494;50.868;4.180;2022-09-30T02:33:25;13.67;;;8.00;;
20669;SDS011;10494;50.868;4.180;2022-09-30T02:36:00;10.77;;;7.60;;
20669;SDS011;10494;50.868;4.180;2022-09-30T02:38:32;10.27;;;7.03;;
20669;SDS011;10494;50.868;4.180;2022-09-30T02:41:19;10.00;;;7.00;;
20669;SDS011;10494;50.868;4.180;2022-09-30T02:43:49;10.00;;;6.20;;
20669;SDS011;10494;50.868;4.180;2022-09-30T02:57:27;10.20;;;7.00;;
20669;SDS011;10494;50.868;4.180;2022-09-30T03:00:20;10.80;;;7.30;;
20669;SDS011;10494;50.868;4.180;2022-09-30T03:02:45;15.97;;;7.80;;
20669;SDS011;10494;50.868;4.180;2022-09-30T03:05:12;12.93;;;8.40;;
20669;SDS011;10494;50.868;4.180;2022-09-30T03:07:38;12.53;;;7.87;;
20669;SDS011;10494;50.868;4.180;2022-09-30T03:10:14;11.10;;;7.67;;
20669;SDS011;10494;50.868;4.180;2022-09-30T03:18:23;10.17;;;7.50;;
20669;SDS011;10494;50.868;4.180;2022-09-30T03:21:16;12.43;;;6.83;;
20669;SDS011;10494;50.868;4.180;2022-09-30T03:23:56;8.60;;;6.53;;
20669;SDS011;10494;50.868;4.180;2022-09-30T03:43:23;11.00;;;7.30;;
20669;SDS011;10494;50.868;4.180;2022-09-30T03:45:59;14.00;;;7.20;;
20669;SDS011;10494;50.868;4.180;2022-09-30T03:48:31;11.53;;;6.73;;
20669;SDS011;10494;50.868;4.180;2022-09-30T03:50:59;11.47;;;7.23;;
20669;SDS011;10494;50.868;4.180;2022-09-30T03:53:25;13.70;;;7.17;;
20669;SDS011;10494;50.868;4.180;2022-09-30T03:55:52;11.70;;;7.53;;
20669;SDS011;10494;50.868;4.180;2022-09-30T03:58:19;14.80;;;7.73;;
20669;SDS011;10494;50.868;4.180;2022-09-30T04:00:48;12.63;;;7.73;;
20669;SDS011;10494;50.868;4.180;2022-09-30T04:03:15;15.40;;;8.20;;
20669;SDS011;10494;50.868;4.180;2022-09-30T04:05:43;10.63;;;7.33;;
20669;SDS011;10494;50.868;4.180;2022-09-30T04:08:10;12.23;;;8.47;;
20669;SDS011;10494;50.868;4.180;2022-09-30T04:10:37;12.10;;;7.10;;
20669;SDS011;10494;50.868;4.180;2022-09-30T04:13:04;22.77;;;8.47;;
20669;SDS011;10494;50.868;4.180;2022-09-30T04:15:30;16.83;;;9.03;;
20669;SDS011;10494;50.868;4.180;2022-09-30T04:17:55;15.53;;;9.47;;
20669;SDS011;10494;50.868;4.180;2022-09-30T04:20:22;16.00;;;9.87;;
20669;SDS011;10494;50.868;4.180;2022-09-30T04:22:47;13.20;;;9.27;;
20669;SDS011;10494;50.868;4.180;2022-09-30T04:25:13;16.17;;;9.00;;
20669;SDS011;10494;50.868;4.180;2022-09-30T04:27:39;15.53;;;8.47;;
20669;SDS011;10494;50.868;4.180;2022-09-30T04:30:04;17.80;;;10.50;;
20669;SDS011;10494;50.868;4.180;2022-09-30T04:32:30;15.33;;;9.17;;
20669;SDS011;10494;50.868;4.180;2022-09-30T04:34:56;15.77;;;8.93;;
20669;SDS011;10494;50.868;4.180;2022-09-30T04:37:21;18.33;;;10.03;;
20669;SDS011;10494;50.868;4.180;2022-09-30T04:39:48;14.23;;;9.33;;
20669;SDS011;10494;50.868;4.180;2022-09-30T04:42:13;16.27;;;9.33;;
20669;SDS011;10494;50.868;4.180;2022-09-30T04:44:42;18.03;;;10.07;;
20669;SDS011;10494;50.868;4.180;2022-09-30T04:47:07;16.17;;;9.23;;
20669;SDS011;10494;50.868;4.180;2022-09-30T04:49:33;13.37;;;9.20;;
20669;SDS011;10494;50.868;4.180;2022-09-30T04:51:59;18.00;;;10.77;;
20669;SDS011;10494;50.868;4.180;2022-09-30T04:54:24;12.57;;;8.60;;
20669;SDS011;10494;50.868;4.180;2022-09-30T04:56:50;17.23;;;9.87;;
20669;SDS011;10494;50.868;4.180;2022-09-30T04:59:15;13.70;;;9.53;;
20669;SDS011;10494;50.868;4.180;2022-09-30T05:01:41;18.63;;;10.13;;
20669;SDS011;10494;50.868;4.180;2022-09-30T05:04:08;15.30;;;9.57;;
20669;SDS011;10494;50.868;4.180;2022-09-30T05:06:36;15.50;;;10.57;;
20669;SDS011;10494;50.868;4.180;2022-09-30T05:09:04;18.17;;;10.50;;
20669;SDS011;10494;50.868;4.180;2022-09-30T05:11:30;15.43;;;9.57;;
20669;SDS011;10494;50.868;4.180;2022-09-30T05:13:55;18.23;;;10.87;;
20669;SDS011;10494;50.868;4.180;2022-09-30T05:16:21;16.73;;;10.07;;
20669;SDS011;10494;50.868;4.180;2022-09-30T05:18:46;17.23;;;10.13;;
20669;SDS011;10494;50.868;4.180;2022-09-30T05:21:14;21.70;;;11.13;;
20669;SDS011;10494;50.868;4.180;2022-09-30T05:23:41;16.20;;;11.17;;
20669;SDS011;10494;50.868;4.180;2022-09-30T05:26:07;20.80;;;11.70;;
20669;SDS011;10494;50.868;4.180;2022-09-30T05:28:32;24.20;;;12.63;;
20669;SDS011;10494;50.868;4.180;2022-09-30T05:30:59;24.20;;;11.90;;
20669;SDS011;10494;50.868;4.180;2022-09-30T05:33:29;16.40;;;11.03;;
20669;SDS011;10494;50.868;4.180;2022-09-30T05:35:57;22.70;;;11.80;;
20669;SDS011;10494;50.868;4.180;2022-09-30T05:38:24;16.00;;;10.73;;
20669;SDS011;10494;50.868;4.180;2022-09-30T05:40:50;16.70;;;11.00;;
20669;SDS011;10494;50.868;4.180;2022-09-30T05:43:16;18.47;;;11.67;;
20669;SDS011;10494;50.868;4.180;2022-09-30T05:45:42;21.57;;;11.70;;
20669;SDS011;10494;50.868;4.180;2022-09-30T05:48:16;18.23;;;12.30;;
20669;SDS011;10494;50.868;4.180;2022-09-30T05:50:42;19.10;;;10.93;;
20669;SDS011;10494;50.868;4.180;2022-09-30T05:53:07;40.73;;;12.33;;
20669;SDS011;10494;50.868;4.180;2022-09-30T05:55:33;23.53;;;11.73;;
20669;SDS011;10494;50.868;4.180;2022-09-30T05:57:58;18.37;;;12.77;;
20669;SDS011;10494;50.868;4.180;2022-09-30T06:00:24;18.17;;;12.63;;
20669;SDS011;10494;50.868;4.180;2022-09-30T06:02:50;30.53;;;13.70;;
20669;SDS011;10494;50.868;4.180;2022-09-30T06:05:16;19.20;;;12.40;;
20669;SDS011;10494;50.868;4.180;2022-09-30T06:07:42;27.23;;;14.10;;
20669;SDS011;10494;50.868;4.180;2022-09-30T06:10:08;20.73;;;14.17;;
20669;SDS011;10494;50.868;4.180;2022-09-30T06:12:36;19.00;;;13.10;;
20669;SDS011;10494;50.868;4.180;2022-09-30T06:15:03;20.43;;;12.63;;
20669;SDS011;10494;50.868;4.180;2022-09-30T06:17:29;20.30;;;12.83;;
20669;SDS011;10494;50.868;4.180;2022-09-30T06:19:55;24.50;;;15.57;;
20669;SDS011;10494;50.868;4.180;2022-09-30T06:22:20;27.30;;;15.67;;
20669;SDS011;10494;50.868;4.180;2022-09-30T06:24:46;25.80;;;15.93;;
20669;SDS011;10494;50.868;4.180;2022-09-30T06:27:12;26.30;;;16.37;;
20669;SDS011;10494;50.868;4.180;2022-09-30T06:29:38;25.73;;;17.00;;
20669;SDS011;10494;50.868;4.180;2022-09-30T06:32:04;24.17;;;15.73;;
20669;SDS011;10494;50.868;4.180;2022-09-30T06:34:30;27.53;;;15.87;;
20669;SDS011;10494;50.868;4.180;2022-09-30T06:36:56;24.30;;;14.10;;
20669;SDS011;10494;50.868;4.180;2022-09-30T06:39:22;25.63;;;15.10;;
20669;SDS011;10494;50.868;4.180;2022-09-30T06:41:48;23.47;;;14.17;;
20669;SDS011;10494;50.868;4.180;2022-09-30T06:44:13;35.67;;;16.33;;
20669;SDS011;10494;50.868;4.180;2022-09-30T06:46:39;28.23;;;14.20;;
20669;SDS011;10494;50.868;4.180;2022-09-30T06:49:04;27.67;;;14.57;;
20669;SDS011;10494;50.868;4.180;2022-09-30T06:51:31;25.23;;;14.83;;
20669;SDS011;10494;50.868;4.180;2022-09-30T06:53:58;28.00;;;15.43;;
20669;SDS011;10494;50.868;4.180;2022-09-30T06:56:24;22.90;;;13.83;;
20669;SDS011;10494;50.868;4.180;2022-09-30T06:58:50;23.53;;;12.50;;
20669;SDS011;10494;50.868;4.180;2022-09-30T07:01:16;27.43;;;13.93;;
20669;SDS011;10494;50.868;4.180;2022-09-30T07:03:43;26.17;;;15.53;;
20669;SDS011;10494;50.868;4.180;2022-09-30T07:06:10;20.47;;;14.23;;
20669;SDS011;10494;50.868;4.180;2022-09-30T07:08:37;27.13;;;17.60;;
20669;SDS011;10494;50.868;4.180;2022-09-30T07:11:05;27.23;;;17.37;;
20669;SDS011;10494;50.868;4.180;2022-09-30T07:13:36;29.37;;;19.80;;
20669;SDS011;10494;50.868;4.180;2022-09-30T07:16:03;29.70;;;20.13;;
20669;SDS011;10494;50.868;4.180;2022-09-30T07:18:28;32.07;;;21.60;;
20669;SDS011;10494;50.868;4.180;2022-09-30T07:20:54;36.67;;;22.87;;
20669;SDS011;10494;50.868;4.180;2022-09-30T07:23:21;39.20;;;23.40;;
20669;SDS011;10494;50.868;4.180;2022-09-30T07:25:48;32.97;;;21.80;;
20669;SDS011;10494;50.868;4.180;2022-09-30T07:28:27;24.43;;;17.23;;
20669;SDS011;10494;50.868;4.180;2022-09-30T07:30:57;21.95;;;13.45;;
20669;SDS011;10494;50.868;4.180;2022-09-30T07:33:24;18.17;;;10.75;;
20669;SDS011;10494;50.868;4.180;2022-09-30T07:35:53;17.25;;;10.15;;
20669;SDS011;10494;50.868;4.180;2022-09-30T07:38:20;15.88;;;9.45;;
20669;SDS011;10494;50.868;4.180;2022-09-30T07:40:52;18.70;;;9.40;;
20669;SDS011;10494;50.868;4.180;2022-09-30T07:43:19;15.93;;;7.93;;
20669;SDS011;10494;50.868;4.180;2022-09-30T07:45:45;15.73;;;9.88;;
20669;SDS011;10494;50.868;4.180;2022-09-30T07:48:12;12.63;;;9.20;;
20669;SDS011;10494;50.868;4.180;2022-09-30T07:50:58;14.10;;;9.35;;
20669;SDS011;10494;50.868;4.180;2022-09-30T07:53:23;11.75;;;8.10;;
20669;SDS011;10494;50.868;4.180;2022-09-30T07:55:49;16.17;;;9.65;;
20669;SDS011;10494;50.868;4.180;2022-09-30T07:58:14;14.32;;;9.15;;
20669;SDS011;10494;50.868;4.180;2022-09-30T08:00:40;13.57;;;9.20;;
20669;SDS011;10494;50.868;4.180;2022-09-30T08:03:06;14.90;;;8.60;;
20669;SDS011;10494;50.868;4.180;2022-09-30T08:05:37;11.38;;;8.70;;
20669;SDS011;10494;50.868;4.180;2022-09-30T08:08:04;14.02;;;9.50;;
20669;SDS011;10494;50.868;4.180;2022-09-30T08:10:33;14.15;;;9.00;;
20669;SDS011;10494;50.868;4.180;2022-09-30T08:12:59;12.93;;;8.55;;
20669;SDS011;10494;50.868;4.180;2022-09-30T08:15:24;12.85;;;9.18;;
20669;SDS011;10494;50.868;4.180;2022-09-30T08:17:50;14.02;;;9.20;;
20669;SDS011;10494;50.868;4.180;2022-09-30T08:20:16;12.38;;;8.15;;
20669;SDS011;10494;50.868;4.180;2022-09-30T08:22:41;12.45;;;8.75;;
20669;SDS011;10494;50.868;4.180;2022-09-30T08:25:07;13.38;;;8.82;;
20669;SDS011;10494;50.868;4.180;2022-09-30T08:27:32;16.38;;;9.10;;
20669;SDS011;10494;50.868;4.180;2022-09-30T08:29:58;14.35;;;8.50;;
20669;SDS011;10494;50.868;4.180;2022-09-30T08:32:23;12.23;;;8.35;;
20669;SDS011;10494;50.868;4.180;2022-09-30T08:34:49;11.85;;;8.18;;
20669;SDS011;10494;50.868;4.180;2022-09-30T08:37:15;15.38;;;8.52;;
20669;SDS011;10494;50.868;4.180;2022-09-30T08:39:40;12.55;;;7.80;;
20669;SDS011;10494;50.868;4.180;2022-09-30T08:44:53;17.48;;;8.10;;
20669;SDS011;10494;50.868;4.180;2022-09-30T08:50:20;10.55;;;7.88;;
20669;SDS011;10494;50.868;4.180;2022-09-30T08:53:10;12.40;;;7.57;;
20669;SDS011;10494;50.868;4.180;2022-09-30T08:55:45;9.48;;;5.97;;
20669;SDS011;10494;50.868;4.180;2022-09-30T08:58:27;8.80;;;5.70;;
20669;SDS011;10494;50.868;4.180;2022-09-30T09:03:48;9.70;;;6.00;;
20669;SDS011;10494;50.868;4.180;2022-09-30T09:06:19;11.45;;;5.38;;
20669;SDS011;10494;50.868;4.180;2022-09-30T09:09:01;9.15;;;6.28;;
20669;SDS011;10494;50.868;4.180;2022-09-30T09:11:42;10.95;;;6.75;;
20669;SDS011;10494;50.868;4.180;2022-09-30T09:19:56;9.52;;;6.05;;
20669;SDS011;10494;50.868;4.180;2022-09-30T09:22:40;9.63;;;6.13;;
20669;SDS011;10494;50.868;4.180;2022-09-30T09:25:08;11.23;;;5.63;;
20669;SDS011;10494;50.868;4.180;2022-09-30T09:28:15;8.55;;;5.20;;
20669;SDS011;10494;50.868;4.180;2022-09-30T09:30:43;10.05;;;6.03;;
20669;SDS011;10494;50.868;4.180;2022-09-30T09:33:20;9.55;;;5.35;;
20669;SDS011;10494;50.868;4.180;2022-09-30T09:35:56;9.10;;;5.75;;
20669;SDS011;10494;50.868;4.180;2022-09-30T09:46:46;8.82;;;6.13;;
20669;SDS011;10494;50.868;4.180;2022-09-30T09:49:38;8.48;;;4.47;;
20669;SDS011;10494;50.868;4.180;2022-09-30T09:54:53;9.13;;;4.68;;
20669;SDS011;10494;50.868;4.180;2022-09-30T09:57:23;12.52;;;5.25;;
20669;SDS011;10494;50.868;4.180;2022-09-30T10:02:24;13.65;;;5.15;;
20669;SDS011;10494;50.868;4.180;2022-09-30T10:04:51;8.60;;;4.60;;
20669;SDS011;10494;50.868;4.180;2022-09-30T10:07:31;12.18;;;4.57;;
20669;SDS011;10494;50.868;4.180;2022-09-30T10:10:05;8.35;;;4.72;;
20669;SDS011;10494;50.868;4.180;2022-09-30T10:12:36;9.13;;;4.35;;
20669;SDS011;10494;50.868;4.180;2022-09-30T10:15:04;6.70;;;3.92;;
20669;SDS011;10494;50.868;4.180;2022-09-30T10:17:39;6.15;;;4.05;;
20669;SDS011;10494;50.868;4.180;2022-09-30T10:22:40;10.75;;;4.20;;
20669;SDS011;10494;50.868;4.180;2022-09-30T10:25:14;6.88;;;4.10;;
20669;SDS011;10494;50.868;4.180;2022-09-30T10:30:34;8.35;;;4.18;;
20669;SDS011;10494;50.868;4.180;2022-09-30T10:33:03;6.90;;;3.97;;
20669;SDS011;10494;50.868;4.180;2022-09-30T10:36:09;6.85;;;3.72;;
20669;SDS011;10494;50.868;4.180;2022-09-30T10:38:36;6.15;;;3.75;;
20669;SDS011;10494;50.868;4.180;2022-09-30T10:41:09;9.07;;;4.15;;
20669;SDS011;10494;50.868;4.180;2022-09-30T10:43:38;6.95;;;4.13;;
20669;SDS011;10494;50.868;4.180;2022-09-30T10:46:08;8.63;;;5.03;;
20669;SDS011;10494;50.868;4.180;2022-09-30T10:48:35;5.43;;;4.15;;
20669;SDS011;10494;50.868;4.180;2022-09-30T10:51:02;6.75;;;4.32;;
20669;SDS011;10494;50.868;4.180;2022-09-30T10:53:31;6.47;;;4.10;;
20669;SDS011;10494;50.868;4.180;2022-09-30T10:55:59;8.65;;;4.70;;
20669;SDS011;10494;50.868;4.180;2022-09-30T11:00:56;6.78;;;4.20;;
20669;SDS011;10494;50.868;4.180;2022-09-30T11:06:49;8.13;;;4.57;;
20669;SDS011;10494;50.868;4.180;2022-09-30T11:09:34;12.82;;;5.20;;
20669;SDS011;10494;50.868;4.180;2022-09-30T11:12:09;8.05;;;4.70;;
20669;SDS011;10494;50.868;4.180;2022-09-30T11:14:58;7.57;;;4.30;;
20669;SDS011;10494;50.868;4.180;2022-09-30T11:19:57;5.70;;;4.20;;
20669;SDS011;10494;50.868;4.180;2022-09-30T11:25:26;7.53;;;4.47;;
20669;SDS011;10494;50.868;4.180;2022-09-30T11:30:47;10.43;;;4.80;;
20669;SDS011;10494;50.868;4.180;2022-09-30T11:33:40;9.55;;;4.47;;
20669;SDS011;10494;50.868;4.180;2022-09-30T11:36:20;7.75;;;5.20;;
20669;SDS011;10494;50.868;4.180;2022-09-30T11:41:56;8.57;;;5.13;;
20669;SDS011;10494;50.868;4.180;2022-09-30T11:44:33;6.60;;;4.22;;
20669;SDS011;10494;50.868;4.180;2022-09-30T11:49:53;7.82;;;4.75;;
20669;SDS011;10494;50.868;4.180;2022-09-30T11:58:16;7.70;;;4.63;;
20669;SDS011;10494;50.868;4.180;2022-09-30T12:00:46;8.60;;;4.70;;
20669;SDS011;10494;50.868;4.180;2022-09-30T12:03:21;8.05;;;4.82;;
20669;SDS011;10494;50.868;4.180;2022-09-30T12:05:52;10.20;;;5.40;;
20669;SDS011;10494;50.868;4.180;2022-09-30T12:08:23;6.75;;;5.05;;
20669;SDS011;10494;50.868;4.180;2022-09-30T12:10:55;7.90;;;4.88;;
20669;SDS011;10494;50.868;4.180;2022-09-30T12:13:33;7.35;;;4.60;;
20669;SDS011;10494;50.868;4.180;2022-09-30T12:16:08;7.53;;;3.80;;
20669;SDS011;10494;50.868;4.180;2022-09-30T12:18:44;6.50;;;4.20;;
20669;SDS011;10494;50.868;4.180;2022-09-30T12:21:19;5.60;;;4.18;;
20669;SDS011;10494;50.868;4.180;2022-09-30T12:24:01;8.32;;;4.40;;
20669;SDS011;10494;50.868;4.180;2022-09-30T12:26:35;6.20;;;4.30;;
20669;SDS011;10494;50.868;4.180;2022-09-30T12:29:11;7.38;;;4.85;;
20669;SDS011;10494;50.868;4.180;2022-09-30T12:34:55;8.00;;;4.85;;
20669;SDS011;10494;50.868;4.180;2022-09-30T12:48:16;7.28;;;4.60;;
20669;SDS011;10494;50.868;4.180;2022-09-30T12:53:21;9.05;;;4.50;;
20669;SDS011;10494;50.868;4.180;2022-09-30T12:55:53;6.80;;;4.20;;
20669;SDS011;10494;50.868;4.180;2022-09-30T12:58:26;6.53;;;4.30;;
20669;SDS011;10494;50.868;4.180;2022-09-30T13:01:03;6.85;;;3.75;;
20669;SDS011;10494;50.868;4.180;2022-09-30T13:03:50;4.72;;;3.30;;
20669;SDS011;10494;50.868;4.180;2022-09-30T13:09:21;4.70;;;3.30;;
20669;SDS011;10494;50.868;4.180;2022-09-30T13:14:30;5.07;;;3.58;;
20669;SDS011;10494;50.868;4.180;2022-09-30T13:32:44;5.20;;;2.78;;
20669;SDS011;10494;50.868;4.180;2022-09-30T13:43:19;9.85;;;3.72;;
20669;SDS011;10494;50.868;4.180;2022-09-30T13:45:50;5.57;;;3.60;;
20669;SDS011;10494;50.868;4.180;2022-09-30T13:48:29;5.05;;;3.80;;
20669;SDS011;10494;50.868;4.180;2022-09-30T13:50:59;11.10;;;3.70;;
20669;SDS011;10494;50.868;4.180;2022-09-30T13:53:36;7.03;;;3.53;;
20669;SDS011;10494;50.868;4.180;2022-09-30T13:56:12;5.38;;;3.50;;
20669;SDS011;10494;50.868;4.180;2022-09-30T14:12:31;7.80;;;3.13;;
20669;SDS011;10494;50.868;4.180;2022-09-30T14:18:26;9.40;;;4.07;;
20669;SDS011;10494;50.868;4.180;2022-09-30T14:24:09;6.47;;;3.85;;
20669;SDS011;10494;50.868;4.180;2022-09-30T14:29:37;5.78;;;3.80;;
20669;SDS011;10494;50.868;4.180;2022-09-30T14:32:13;6.07;;;3.80;;
20669;SDS011;10494;50.868;4.180;2022-09-30T14:34:43;4.05;;;3.47;;
20669;SDS011;10494;50.868;4.180;2022-09-30T14:37:17;7.63;;;3.88;;
20669;SDS011;10494;50.868;4.180;2022-09-30T14:39:49;5.47;;;3.42;;
20669;SDS011;10494;50.868;4.180;2022-09-30T14:42:17;8.20;;;3.25;;
20669;SDS011;10494;50.868;4.180;2022-09-30T14:44:53;4.07;;;3.13;;
20669;SDS011;10494;50.868;4.180;2022-09-30T14:47:26;6.85;;;3.25;;
20669;SDS011;10494;50.868;4.180;2022-09-30T14:49:51;4.85;;;3.30;;
20669;SDS011;10494;50.868;4.180;2022-09-30T14:57:54;5.22;;;3.47;;
20669;SDS011;10494;50.868;4.180;2022-09-30T15:00:42;5.47;;;2.80;;
20669;SDS011;10494;50.868;4.180;2022-09-30T15:03:11;7.13;;;3.50;;
20669;SDS011;10494;50.868;4.180;2022-09-30T15:05:37;4.80;;;3.33;;
20669;SDS011;10494;50.868;4.180;2022-09-30T15:08:16;4.70;;;2.70;;
20669;SDS011;10494;50.868;4.180;2022-09-30T15:10:46;2.60;;;2.28;;
20669;SDS011;10494;50.868;4.180;2022-09-30T15:13:14;3.50;;;2.03;;
20669;SDS011;10494;50.868;4.180;2022-09-30T15:15:41;3.63;;;2.67;;
20669;SDS011;10494;50.868;4.180;2022-09-30T15:18:26;5.95;;;2.67;;
20669;SDS011;10494;50.868;4.180;2022-09-30T15:20:56;5.50;;;2.63;;
20669;SDS011;10494;50.868;4.180;2022-09-30T15:23:26;3.60;;;2.17;;
20669;SDS011;10494;50.868;4.180;2022-09-30T15:25:57;2.85;;;1.77;;
20669;SDS011;10494;50.868;4.180;2022-09-30T15:28:23;9.35;;;2.40;;
20669;SDS011;10494;50.868;4.180;2022-09-30T15:30:50;6.78;;;2.47;;
20669;SDS011;10494;50.868;4.180;2022-09-30T15:33:19;9.25;;;2.20;;
20669;SDS011;10494;50.868;4.180;2022-09-30T15:36:03;4.18;;;2.08;;
20669;SDS011;10494;50.868;4.180;2022-09-30T15:38:38;3.28;;;1.90;;
20669;SDS011;10494;50.868;4.180;2022-09-30T15:41:05;2.47;;;1.70;;
20669;SDS011;10494;50.868;4.180;2022-09-30T15:46:29;3.58;;;2.20;;
20669;SDS011;10494;50.868;4.180;2022-09-30T15:49:01;4.57;;;2.17;;
20669;SDS011;10494;50.868;4.180;2022-09-30T15:51:47;3.75;;;2.47;;
20669;SDS011;10494;50.868;4.180;2022-09-30T15:54:29;2.35;;;1.80;;
20669;SDS011;10494;50.868;4.180;2022-09-30T15:56:59;3.38;;;2.10;;
20669;SDS011;10494;50.868;4.180;2022-09-30T16:02:25;6.40;;;2.22;;
20669;SDS011;10494;50.868;4.180;2022-09-30T16:04:52;5.82;;;2.10;;
20669;SDS011;10494;50.868;4.180;2022-09-30T16:07:18;3.17;;;1.80;;
20669;SDS011;10494;50.868;4.180;2022-09-30T16:09:50;4.93;;;2.20;;
20669;SDS011;10494;50.868;4.180;2022-09-30T16:12:16;3.80;;;1.85;;
20669;SDS011;10494;50.868;4.180;2022-09-30T16:17:22;5.63;;;1.80;;
20669;SDS011;10494;50.868;4.180;2022-09-30T16:19:54;4.25;;;2.10;;
20669;SDS011;10494;50.868;4.180;2022-09-30T16:22:32;2.40;;;2.00;;
20669;SDS011;10494;50.868;4.180;2022-09-30T16:25:22;3.60;;;2.00;;
20669;SDS011;10494;50.868;4.180;2022-09-30T16:27:59;3.40;;;1.88;;
20669;SDS011;10494;50.868;4.180;2022-09-30T16:30:27;4.28;;;2.22;;
20669;SDS011;10494;50.868;4.180;2022-09-30T16:32:55;5.60;;;2.28;;
20669;SDS011;10494;50.868;4.180;2022-09-30T16:35:23;3.83;;;2.08;;
20669;SDS011;10494;50.868;4.180;2022-09-30T16:37:57;5.63;;;2.25;;
20669;SDS011;10494;50.868;4.180;2022-09-30T16:40:27;2.88;;;2.10;;
20669;SDS011;10494;50.868;4.180;2022-09-30T16:42:54;2.97;;;2.17;;
20669;SDS011;10494;50.868;4.180;2022-09-30T16:45:22;7.93;;;2.13;;
20669;SDS011;10494;50.868;4.180;2022-09-30T16:47:48;4.40;;;2.20;;
20669;SDS011;10494;50.868;4.180;2022-09-30T16:52:49;4.53;;;1.92;;
20669;SDS011;10494;50.868;4.180;2022-09-30T16:55:14;4.25;;;2.50;;
20669;SDS011;10494;50.868;4.180;2022-09-30T16:57:40;3.67;;;2.03;;
20669;SDS011;10494;50.868;4.180;2022-09-30T17:00:06;7.63;;;2.38;;
20669;SDS011;10494;50.868;4.180;2022-09-30T17:02:35;3.15;;;2.30;;
20669;SDS011;10494;50.868;4.180;2022-09-30T17:05:01;4.95;;;2.17;;
20669;SDS011;10494;50.868;4.180;2022-09-30T17:07:27;4.97;;;2.42;;
20669;SDS011;10494;50.868;4.180;2022-09-30T17:09:54;7.00;;;2.30;;
20669;SDS011;10494;50.868;4.180;2022-09-30T17:12:20;6.55;;;2.40;;
20669;SDS011;10494;50.868;4.180;2022-09-30T17:14:45;4.55;;;2.65;;
20669;SDS011;10494;50.868;4.180;2022-09-30T17:17:11;4.28;;;2.95;;
20669;SDS011;10494;50.868;4.180;2022-09-30T17:19:36;4.28;;;2.60;;
20669;SDS011;10494;50.868;4.180;2022-09-30T17:22:02;4.93;;;2.80;;
20669;SDS011;10494;50.868;4.180;2022-09-30T17:24:29;6.95;;;2.80;;
20669;SDS011;10494;50.868;4.180;2022-09-30T17:26:55;7.65;;;2.88;;
20669;SDS011;10494;50.868;4.180;2022-09-30T17:29:21;4.30;;;3.00;;
20669;SDS011;10494;50.868;4.180;2022-09-30T17:31:47;7.55;;;3.70;;
20669;SDS011;10494;50.868;4.180;2022-09-30T17:34:13;4.13;;;3.17;;
20669;SDS011;10494;50.868;4.180;2022-09-30T17:36:38;4.70;;;3.40;;
20669;SDS011;10494;50.868;4.180;2022-09-30T17:39:05;8.20;;;3.60;;
20669;SDS011;10494;50.868;4.180;2022-09-30T17:41:31;7.93;;;3.45;;
20669;SDS011;10494;50.868;4.180;2022-09-30T17:44:16;6.25;;;3.30;;
20669;SDS011;10494;50.868;4.180;2022-09-30T17:46:42;6.07;;;3.03;;
20669;SDS011;10494;50.868;4.180;2022-09-30T17:49:10;7.47;;;3.17;;
20669;SDS011;10494;50.868;4.180;2022-09-30T17:51:37;7.00;;;3.40;;
20669;SDS011;10494;50.868;4.180;2022-09-30T17:54:12;6.00;;;3.30;;
20669;SDS011;10494;50.868;4.180;2022-09-30T18:04:34;7.07;;;3.80;;
20669;SDS011;10494;50.868;4.180;2022-09-30T18:07:01;7.53;;;3.50;;
20669;SDS011;10494;50.868;4.180;2022-09-30T18:09:27;6.00;;;3.40;;
20669;SDS011;10494;50.868;4.180;2022-09-30T18:11:53;9.27;;;3.70;;
20669;SDS011;10494;50.868;4.180;2022-09-30T18:14:18;7.10;;;3.13;;
20669;SDS011;10494;50.868;4.180;2022-09-30T18:16:44;4.97;;;3.22;;
20669;SDS011;10494;50.868;4.180;2022-09-30T18:31:51;6.68;;;3.70;;
20669;SDS011;10494;50.868;4.180;2022-09-30T18:34:16;5.82;;;3.42;;
20669;SDS011;10494;50.868;4.180;2022-09-30T18:36:43;6.80;;;3.30;;
20669;SDS011;10494;50.868;4.180;2022-09-30T18:39:09;4.07;;;2.80;;
20669;SDS011;10494;50.868;4.180;2022-09-30T18:41:34;4.53;;;2.97;;